RYR62GK LICJ-EDJA
Flight info
| Callsign | RYR62GK |
|---|---|
| Flight time | N/A |
| Altitude | 36000 |
| Route | ROSAS6R ROSAS DCT SOR DCT RESIA DCT SOPER N851 KUDIS T103 NUNRI Z6 ALG DCT |
| Aircraft | B738/M-SDE2E3FGHIRWXY/LB1 |
Departure
| Time | N/A |
|---|---|
| Airport | Falcone–Borsellino Airport (LICJ) |
Arrival
| Time | 2026-05-01 08:12 |
|---|---|
| Airport | Memmingen Allgau Airport (EDJA) |
| Time | Latitude | Longitude | Altitude | Speed | Heading |
|---|---|---|---|---|---|
| 2026-05-01 07:23 | 44.45587 | 11.62538 | 36353 ft | 409 kts | 336° |
| 2026-05-01 07:24 | 44.53109 | 11.56882 | 36369 ft | 409 kts | 336° |
| 2026-05-01 07:24 | 44.58119 | 11.53108 | 36365 ft | 408 kts | 336° |
| 2026-05-01 07:25 | 44.63120 | 11.49330 | 36372 ft | 408 kts | 336° |
| 2026-05-01 07:25 | 44.68116 | 11.45548 | 36367 ft | 408 kts | 336° |
| 2026-05-01 07:26 | 44.73073 | 11.41789 | 36334 ft | 408 kts | 336° |
| 2026-05-01 07:26 | 44.78054 | 11.38008 | 36350 ft | 407 kts | 336° |
| 2026-05-01 07:27 | 44.83033 | 11.34217 | 36361 ft | 407 kts | 336° |
| 2026-05-01 07:27 | 44.87983 | 11.30439 | 36362 ft | 407 kts | 336° |
| 2026-05-01 07:28 | 44.92969 | 11.26626 | 36365 ft | 409 kts | 336° |
| 2026-05-01 07:28 | 44.97984 | 11.22785 | 36360 ft | 411 kts | 336° |
| 2026-05-01 07:29 | 45.03018 | 11.18920 | 36381 ft | 412 kts | 336° |
| 2026-05-01 07:29 | 45.08070 | 11.15033 | 36379 ft | 415 kts | 336° |
| 2026-05-01 07:30 | 45.13105 | 11.11150 | 36372 ft | 415 kts | 336° |
| 2026-05-01 07:30 | 45.18189 | 11.07225 | 36372 ft | 416 kts | 336° |
| 2026-05-01 07:31 | 45.23273 | 11.03291 | 36379 ft | 416 kts | 336° |
| 2026-05-01 07:32 | 45.35896 | 10.93483 | 36400 ft | 414 kts | 336° |
| 2026-05-01 07:33 | 45.43446 | 10.87596 | 36396 ft | 412 kts | 336° |
| 2026-05-01 07:33 | 45.50953 | 10.81726 | 36392 ft | 412 kts | 336° |
| 2026-05-01 07:34 | 45.58470 | 10.75832 | 36394 ft | 410 kts | 336° |
| 2026-05-01 07:35 | 45.63483 | 10.71891 | 36392 ft | 411 kts | 336° |
| 2026-05-01 07:35 | 45.68465 | 10.67958 | 36379 ft | 412 kts | 336° |
| 2026-05-01 07:36 | 45.73481 | 10.63994 | 36343 ft | 412 kts | 335° |
| 2026-05-01 07:36 | 45.78503 | 10.60015 | 36363 ft | 414 kts | 335° |
| 2026-05-01 07:37 | 45.86110 | 10.53969 | 36352 ft | 415 kts | 335° |
| 2026-05-01 07:37 | 45.91113 | 10.49996 | 36349 ft | 412 kts | 336° |
| 2026-05-01 07:38 | 45.96117 | 10.46014 | 36361 ft | 410 kts | 335° |
| 2026-05-01 07:39 | 46.03579 | 10.40042 | 36349 ft | 408 kts | 335° |
| 2026-05-01 07:39 | 46.11007 | 10.34087 | 36353 ft | 411 kts | 335° |
| 2026-05-01 07:40 | 46.16018 | 10.30059 | 36353 ft | 414 kts | 335° |
| 2026-05-01 07:40 | 46.21085 | 10.25976 | 36325 ft | 420 kts | 335° |
| 2026-05-01 07:41 | 46.26189 | 10.21855 | 36344 ft | 422 kts | 335° |
| 2026-05-01 07:42 | 46.33894 | 10.15613 | 36325 ft | 424 kts | 335° |
| 2026-05-01 07:42 | 46.38999 | 10.11468 | 36325 ft | 423 kts | 335° |
| 2026-05-01 07:43 | 46.44127 | 10.07282 | 36321 ft | 423 kts | 332° |
| 2026-05-01 07:43 | 46.46502 | 10.04737 | 36344 ft | 428 kts | 321° |
| 2026-05-01 07:43 | 46.50309 | 9.98038 | 36344 ft | 437 kts | 304° |
| 2026-05-01 07:44 | 46.56057 | 9.82664 | 35984 ft | 423 kts | 303° |
| 2026-05-01 07:45 | 46.57426 | 9.78984 | 35660 ft | 417 kts | 304° |
| 2026-05-01 07:45 | 46.58810 | 9.75290 | 35308 ft | 415 kts | 304° |
| 2026-05-01 07:45 | 46.60192 | 9.71615 | 34912 ft | 413 kts | 304° |
| 2026-05-01 07:45 | 46.61564 | 9.67971 | 34556 ft | 410 kts | 304° |
| 2026-05-01 07:46 | 46.62932 | 9.64337 | 34167 ft | 408 kts | 304° |
| 2026-05-01 07:46 | 46.64290 | 9.60722 | 33768 ft | 406 kts | 304° |
| 2026-05-01 07:46 | 46.66979 | 9.53558 | 33026 ft | 400 kts | 304° |
| 2026-05-01 07:47 | 46.68308 | 9.50012 | 32647 ft | 399 kts | 304° |
| 2026-05-01 07:47 | 46.69613 | 9.46523 | 32297 ft | 397 kts | 304° |
| 2026-05-01 07:47 | 46.70929 | 9.43001 | 31924 ft | 395 kts | 304° |
| 2026-05-01 07:47 | 46.72235 | 9.39500 | 31590 ft | 392 kts | 304° |
| 2026-05-01 07:48 | 46.74822 | 9.32548 | 30888 ft | 388 kts | 303° |
| 2026-05-01 07:48 | 46.76103 | 9.29096 | 30558 ft | 386 kts | 303° |
| 2026-05-01 07:48 | 46.77377 | 9.25662 | 30179 ft | 384 kts | 303° |
| 2026-05-01 07:49 | 46.78629 | 9.22283 | 29787 ft | 383 kts | 303° |
| 2026-05-01 07:49 | 46.81134 | 9.15509 | 29093 ft | 376 kts | 303° |
| 2026-05-01 07:49 | 46.82369 | 9.12165 | 28719 ft | 374 kts | 302° |
| 2026-05-01 07:50 | 46.83595 | 9.08843 | 28415 ft | 369 kts | 302° |
| 2026-05-01 07:50 | 46.86020 | 9.02255 | 27697 ft | 368 kts | 302° |
| 2026-05-01 07:50 | 46.87232 | 8.98971 | 27345 ft | 367 kts | 304° |
| 2026-05-01 07:51 | 46.88803 | 8.96182 | 26997 ft | 355 kts | 327° |
| 2026-05-01 07:51 | 46.90911 | 8.94433 | 26699 ft | 346 kts | 343° |
| 2026-05-01 07:51 | 46.93227 | 8.93692 | 26351 ft | 339 kts | 356° |
| 2026-05-01 07:52 | 46.97897 | 8.93099 | 25683 ft | 336 kts | 358° |
| 2026-05-01 07:52 | 47.00227 | 8.92825 | 25361 ft | 336 kts | 358° |
| 2026-05-01 07:52 | 47.02558 | 8.92541 | 25010 ft | 336 kts | 358° |
| 2026-05-01 07:53 | 47.07208 | 8.91946 | 24341 ft | 335 kts | 357° |
| 2026-05-01 07:53 | 47.09537 | 8.91634 | 24018 ft | 336 kts | 357° |
| 2026-05-01 07:53 | 47.11833 | 8.91323 | 23647 ft | 336 kts | 357° |
| 2026-05-01 07:53 | 47.14162 | 8.91008 | 23291 ft | 336 kts | 357° |
| 2026-05-01 07:54 | 47.18809 | 8.90356 | 22585 ft | 335 kts | 357° |
| 2026-05-01 07:55 | 47.25735 | 8.89369 | 21584 ft | 332 kts | 357° |
| 2026-05-01 07:55 | 47.30277 | 8.89579 | 20949 ft | 324 kts | 15° |
| 2026-05-01 07:56 | 47.36579 | 8.92789 | 19998 ft | 320 kts | 22° |
| 2026-05-01 07:56 | 47.40772 | 8.94974 | 19375 ft | 320 kts | 22° |
| 2026-05-01 07:57 | 47.42778 | 8.96341 | 19028 ft | 317 kts | 39° |
| 2026-05-01 07:57 | 47.45216 | 9.01534 | 18393 ft | 311 kts | 71° |
| 2026-05-01 07:58 | 47.46526 | 9.07588 | 17710 ft | 311 kts | 73° |
| 2026-05-01 07:58 | 47.47793 | 9.13695 | 17060 ft | 310 kts | 73° |
| 2026-05-01 07:59 | 47.49073 | 9.19761 | 16423 ft | 307 kts | 72° |
| 2026-05-01 07:59 | 47.50346 | 9.25747 | 15804 ft | 303 kts | 72° |
| 2026-05-01 08:00 | 47.52841 | 9.37489 | 14586 ft | 296 kts | 72° |
| 2026-05-01 08:01 | 47.54666 | 9.46099 | 13636 ft | 291 kts | 72° |
| 2026-05-01 08:01 | 47.55268 | 9.48947 | 13320 ft | 289 kts | 72° |
| 2026-05-01 08:01 | 47.55865 | 9.51784 | 13012 ft | 288 kts | 72° |
| 2026-05-01 08:02 | 47.57049 | 9.57417 | 12411 ft | 285 kts | 72° |
| 2026-05-01 08:02 | 47.57635 | 9.60207 | 12105 ft | 283 kts | 72° |
| 2026-05-01 08:03 | 47.58915 | 9.65693 | 11508 ft | 282 kts | 59° |
| 2026-05-01 08:03 | 47.60097 | 9.67954 | 11238 ft | 280 kts | 51° |
| 2026-05-01 08:03 | 47.62641 | 9.72313 | 10636 ft | 279 kts | 51° |
| 2026-05-01 08:04 | 47.65156 | 9.76670 | 10046 ft | 279 kts | 51° |
| 2026-05-01 08:04 | 47.67648 | 9.81008 | 9419 ft | 272 kts | 52° |
| 2026-05-01 08:05 | 47.70059 | 9.85275 | 8846 ft | 267 kts | 52° |
| 2026-05-01 08:05 | 47.71242 | 9.87393 | 8580 ft | 266 kts | 52° |
| 2026-05-01 08:05 | 47.72435 | 9.89500 | 8307 ft | 267 kts | 52° |
| 2026-05-01 08:06 | 47.74798 | 9.93668 | 7765 ft | 263 kts | 51° |
| 2026-05-01 08:06 | 47.77112 | 9.97878 | 7223 ft | 261 kts | 59° |
| 2026-05-01 08:07 | 47.78892 | 10.02613 | 6500 ft | 271 kts | 62° |
| 2026-05-01 08:07 | 47.81497 | 10.06505 | 5907 ft | 276 kts | 20° |
| 2026-05-01 08:08 | 47.83397 | 10.06766 | 5664 ft | 278 kts | 353° |
| 2026-05-01 08:08 | 47.86857 | 10.04382 | 5171 ft | 274 kts | 330° |
| 2026-05-01 08:09 | 47.90218 | 10.03881 | 4966 ft | 237 kts | 35° |
| 2026-05-01 08:09 | 47.91366 | 10.05500 | 4754 ft | 223 kts | 54° |
| 2026-05-01 08:09 | 47.92272 | 10.07299 | 4464 ft | 210 kts | 58° |
| 2026-05-01 08:10 | 47.93693 | 10.10811 | 3959 ft | 187 kts | 63° |
| 2026-05-01 08:10 | 47.94914 | 10.13913 | 3507 ft | 159 kts | 63° |
| 2026-05-01 08:11 | 47.96001 | 10.16665 | 3077 ft | 150 kts | 62° |
| 2026-05-01 08:11 | 47.97036 | 10.19365 | 2678 ft | 152 kts | 58° |
| 2026-05-01 08:12 | 47.98134 | 10.22080 | 2193 ft | 151 kts | 58° |
| 2026-05-01 08:12 | 47.98671 | 10.23415 | 2089 ft | 146 kts | 58° |
| 2026-05-01 08:12 | 47.99319 | 10.25059 | 2062 ft | 24 kts | 63° |
| 2026-05-01 08:13 | 47.99360 | 10.25172 | 2060 ft | 4 kts | 359° |
| 2026-05-01 08:13 | 47.99359 | 10.25129 | 2061 ft | 7 kts | 242° |
| 2026-05-01 08:13 | 47.99230 | 10.24821 | 2066 ft | 27 kts | 240° |
| 2026-05-01 08:14 | 47.99115 | 10.24537 | 2067 ft | 36 kts | 239° |
| 2026-05-01 08:14 | 47.98972 | 10.24181 | 2069 ft | 44 kts | 239° |
| 2026-05-01 08:14 | 47.98822 | 10.23806 | 2076 ft | 35 kts | 239° |
| 2026-05-01 08:14 | 47.98748 | 10.23596 | 2078 ft | 9 kts | 268° |
| 2026-05-01 08:15 | 47.98788 | 10.23523 | 2079 ft | 9 kts | 304° |
| 2026-05-01 08:15 | 47.98764 | 10.23343 | 2078 ft | 9 kts | 253° |
| 2026-05-01 08:15 | 47.98746 | 10.23256 | 2078 ft | 9 kts | 253° |
| 2026-05-01 08:16 | 47.98729 | 10.23171 | 2077 ft | 8 kts | 253° |
| 2026-05-01 08:16 | 47.98712 | 10.23089 | 2079 ft | 8 kts | 253° |
| 2026-05-01 08:16 | 47.98704 | 10.23009 | 2078 ft | 8 kts | 279° |
| 2026-05-01 08:16 | 47.98732 | 10.22951 | 2077 ft | 8 kts | 1° |
| 2026-05-01 08:17 | 47.98763 | 10.23010 | 2078 ft | 7 kts | 68° |
| 2026-05-01 08:17 | 47.98780 | 10.23082 | 2078 ft | 7 kts | 71° |
| 2026-05-01 08:17 | 47.98797 | 10.23157 | 2078 ft | 8 kts | 70° |
| 2026-05-01 08:17 | 47.98819 | 10.23232 | 2079 ft | 4 kts | 42° |
| 2026-05-01 08:18 | 47.98837 | 10.23232 | 2079 ft | 3 kts | 335° |
| 2026-05-01 08:18 | 47.98865 | 10.23236 | 2079 ft | 0 kts | 48° |
| 2026-05-01 08:19 | 47.98867 | 10.23240 | 2079 ft | 0 kts | 47° |